Algoa, TX

7:29 AM CDT on April 23, 2017 (GMT -0500)
Algoa Radio - K5UY | | Change Station

Elev 33 ft 29.41 °N, 95.18 °W | Updated 4 seconds ago

Partly Cloudy
Partly Cloudy
55.1 °F
Feels Like 55.1 °F
N
3.0
Wind Variable Wind from NNW
Gusts 7.0 mph

Today
High -- | Low -- °F
--% Chance of Precip.
Yesterday
High -- | Low -- °F
Precip. -- in
Pressure 30.09 in
Visibility 10.0 miles
Clouds Mostly Cloudy 9500 ft
Dew Point 46 °F
Humidity 71%
Rainfall 0.00 in
Snow Depth Not available.
6:45 AM 7:52 PM
Waning Crescent, 12% visible
METAR KLVJ 231153Z AUTO 35008G17KT 10SM BKN095 14/05 A3009 RMK AO2 SLP188 60000 T01390050 10172 20139 53012
Pressure 30.09 in
Visibility 10.0 miles
Clouds Mostly Cloudy 9500 ft
Dew Point 46 °F
Humidity 71%
Rainfall 0.00 in
Snow Depth Not available.
6:45 AM 7:52 PM
Waning Crescent, 12% visible
METAR KLVJ 231153Z AUTO 35008G17KT 10SM BKN095 14/05 A3009 RMK AO2 SLP188 60000 T01390050 10172 20139 53012

Get Severe Weather Alerts

Thanks for signing up!

Be on the lookout for a verification email in your inbox.

You'll start receiving the daily forecast at 8 AM.

×

10-Day Weather Forecast

Almanac

Astronomy

Apr. 23, 2017 Rise Set
Actual Time
Civil Twilight
Nautical Twilight
Astronomical Twilight
Moon
Length of Visible Light
Length of Day
Tomorrow will be .
, % of the Moon is Illuminated

Today's Extremes

State Highs State Lows

Community

WunderPhotos

WunderBlog® & News

Nearby

Air Quality

  Air Quality AQ Index Pollutant
Not available.

Snow Depth

Station Depth Elevation

Earthquake Activity

City Distance Mag. Time & Date
Minimum magnitude displayed is 2.5.

Coastal Water Temperatures

Place Temperature

Stations

Nearby Weather Stations

Station Location Temp. Windchill Dew Point Humidity Wind Precip. Elev Updated Type
                   

Watches & Warnings

There are currently no watches in effect.